Time;durP1;ratioP1;P1;durP2;ratioP2;P2;SDS_P1;SDS_P2;PMS_P1;PMS_P2;Temp;Humidity;BMP_temperature;BMP_pressure;BME280_temperature;BME280_humidity;BME280_pressure;Samples;Min_cycle;Max_cycle;Signal;HPM_P1;HPM_P2
2023/03/04 00:00:32;;;;;;;11.23;3.35;;;8.00;99.70;;;;;;4983968;28;20026;-79
2023/03/04 00:02:57;;;;;;;18.95;3.67;;;8.00;99.90;;;;;;4967671;28;20234;-79
2023/03/04 00:05:26;;;;;;;14.32;3.45;;;8.10;99.90;;;;;;4961299;28;20018;-78
2023/03/04 00:07:55;;;;;;;19.63;3.83;;;8.00;99.90;;;;;;4984098;28;20034;-79
2023/03/04 00:10:20;;;;;;;24.73;4.10;;;8.20;99.90;;;;;;4982104;28;20033;-79
2023/03/04 00:12:48;;;;;;;23.05;3.20;;;8.20;99.80;;;;;;4957049;28;20027;-81
2023/03/04 00:15:13;;;;;;;14.63;2.60;;;8.10;99.80;;;;;;4983859;28;20026;-80
2023/03/04 00:17:39;;;;;;;19.85;3.03;;;8.10;99.80;;;;;;4963004;28;20234;-81
2023/03/04 00:20:05;;;;;;;18.83;2.85;;;8.10;99.90;;;;;;4963512;28;20030;-81
2023/03/04 00:22:34;;;;;;;16.88;2.95;;;8.00;99.90;;;;;;4983227;28;20034;-79
2023/03/04 00:24:59;;;;;;;16.38;2.47;;;8.00;99.90;;;;;;4962978;28;20039;-80
2023/03/04 00:27:25;;;;;;;21.65;2.60;;;8.00;99.90;;;;;;4964926;28;20035;-80
2023/03/04 00:29:51;;;;;;;23.48;3.30;;;8.00;99.90;;;;;;4966525;28;20030;-80
2023/03/04 00:32:19;;;;;;;29.48;2.85;;;8.00;99.90;;;;;;4976958;28;20022;-80
2023/03/04 00:34:48;;;;;;;14.15;2.80;;;8.00;99.90;;;;;;4979321;28;20498;-78
2023/03/04 00:37:14;;;;;;;29.98;4.03;;;8.10;99.90;;;;;;4981791;28;20125;-78
2023/03/04 00:39:42;;;;;;;24.88;2.63;;;8.00;99.90;;;;;;4979266;28;20014;-78
2023/03/04 00:42:08;;;;;;;16.38;2.90;;;8.00;99.90;;;;;;4966247;28;20634;-79
2023/03/04 00:44:36;;;;;;;15.70;2.45;;;8.00;99.90;;;;;;4962119;28;20030;-80
2023/03/04 00:47:01;;;;;;;17.38;3.33;;;8.00;99.90;;;;;;4981300;28;20575;-79
2023/03/04 00:49:30;;;;;;;21.98;3.05;;;8.00;99.90;;;;;;4983339;28;20041;-79
2023/03/04 00:51:56;;;;;;;21.45;3.13;;;8.00;99.90;;;;;;4979987;28;20034;-80
2023/03/04 00:54:24;;;;;;;23.08;2.83;;;8.10;99.90;;;;;;4981783;28;20037;-79
2023/03/04 00:56:57;;;;;;;12.73;2.05;;;8.10;99.90;;;;;;4979698;28;20022;-81
2023/03/04 00:59:26;;;;;;;18.52;3.10;;;8.10;99.90;;;;;;4981100;28;20085;-82
2023/03/04 01:02:15;;;;;;;29.65;2.80;;;8.10;99.90;;;;;;4962809;28;20022;-81
2023/03/04 01:04:43;;;;;;;19.05;2.72;;;8.10;99.90;;;;;;4982747;28;20038;-82
2023/03/04 01:07:09;;;;;;;16.38;2.38;;;8.10;99.90;;;;;;4979660;28;20109;-80
2023/03/04 01:09:37;;;;;;;20.25;2.60;;;8.20;99.90;;;;;;4963034;28;20133;-81
2023/03/04 01:12:06;;;;;;;16.33;2.42;;;8.20;99.90;;;;;;4961680;28;20380;-81
2023/03/04 01:14:32;;;;;;;22.45;3.10;;;8.10;99.90;;;;;;4981664;28;20022;-81
2023/03/04 01:16:57;;;;;;;13.25;2.08;;;8.20;99.90;;;;;;4979399;28;20474;-81
2023/03/04 01:19:23;;;;;;;15.55;2.63;;;8.20;99.90;;;;;;4981714;28;20022;-80
2023/03/04 01:21:48;;;;;;;23.50;3.58;;;8.00;99.90;;;;;;4983868;28;20026;-81
2023/03/04 01:24:14;;;;;;;16.50;2.40;;;8.00;99.90;;;;;;4977599;28;20039;-80
2023/03/04 01:26:40;;;;;;;19.70;2.38;;;7.90;99.90;;;;;;4983191;28;20545;-79
2023/03/04 01:29:05;;;;;;;13.23;2.40;;;7.80;99.90;;;;;;4961084;28;20102;-80
2023/03/04 01:31:31;;;;;;;19.08;2.08;;;7.80;99.90;;;;;;4980432;28;20019;-80
2023/03/04 01:33:57;;;;;;;20.75;2.45;;;7.80;99.90;;;;;;4962825;28;20114;-80
2023/03/04 01:36:49;;;;;;;24.88;2.72;;;7.90;99.90;;;;;;4982048;28;20478;-80
2023/03/04 01:39:14;;;;;;;18.20;2.60;;;7.90;99.90;;;;;;4978523;28;20030;-80
2023/03/04 01:41:46;;;;;;;16.00;2.20;;;8.00;99.90;;;;;;4980694;28;20100;-80
2023/03/04 01:44:12;;;;;;;11.30;1.63;;;8.00;99.90;;;;;;4977611;28;20494;-79
2023/03/04 01:46:46;;;;;;;21.27;2.13;;;8.00;99.90;;;;;;4963913;28;20093;-81
2023/03/04 01:49:13;;;;;;;17.65;2.10;;;7.90;99.90;;;;;;4962622;28;20741;-79
2023/03/04 01:51:41;;;;;;;16.10;2.15;;;7.90;99.90;;;;;;4977741;28;20029;-80
2023/03/04 01:54:08;;;;;;;18.10;2.30;;;7.90;99.90;;;;;;4981459;28;20019;-82
2023/03/04 01:56:37;;;;;;;20.17;2.55;;;7.90;99.90;;;;;;4962939;28;20057;-80
2023/03/04 01:59:18;;;;;;;15.15;1.83;;;7.90;99.90;;;;;;4961383;28;20053;-80
2023/03/04 02:01:53;;;;;;;15.48;1.95;;;7.90;99.90;;;;;;4962953;28;20034;-82
2023/03/04 02:04:31;;;;;;;18.80;2.38;;;7.80;99.90;;;;;;4979766;28;20487;-80
2023/03/04 02:06:58;;;;;;;18.60;2.10;;;7.80;99.90;;;;;;4979018;28;20026;-80
2023/03/04 02:09:23;;;;;;;15.23;2.50;;;7.90;99.90;;;;;;4981274;28;21748;-79
2023/03/04 02:11:50;;;;;;;9.25;2.15;;;7.90;99.90;;;;;;4979757;28;20046;-81
2023/03/04 02:14:17;;;;;;;24.10;2.47;;;7.90;99.90;;;;;;4965186;28;20033;-81
2023/03/04 02:16:42;;;;;;;21.30;2.20;;;7.80;99.90;;;;;;4981569;28;20065;-80
2023/03/04 02:19:43;;;;;;;20.65;2.22;;;7.90;99.90;;;;;;4960031;28;20055;-80
2023/03/04 02:22:11;;;;;;;15.07;2.28;;;7.80;99.90;;;;;;4937417;28;20046;-80
2023/03/04 02:24:46;;;;;;;16.52;2.40;;;7.80;99.90;;;;;;4979391;28;20453;-79
2023/03/04 02:27:12;;;;;;;11.82;2.03;;;7.80;99.90;;;;;;4980326;28;20077;-80
2023/03/04 02:29:40;;;;;;;22.40;2.00;;;7.90;99.90;;;;;;4981930;28;20026;-80
2023/03/04 02:32:09;;;;;;;23.02;2.55;;;7.90;99.90;;;;;;4981932;28;20026;-80
2023/03/04 02:34:36;;;;;;;11.68;2.17;;;7.90;99.90;;;;;;4979945;28;20042;-80
2023/03/04 02:37:02;;;;;;;22.55;2.42;;;7.80;99.90;;;;;;4981548;28;20456;-80
2023/03/04 02:39:34;;;;;;;11.52;1.92;;;7.70;99.90;;;;;;4982165;28;20398;-80
2023/03/04 02:42:01;;;;;;;15.60;2.28;;;7.70;99.90;;;;;;4982018;28;20081;-81
2023/03/04 02:44:30;;;;;;;14.93;2.47;;;7.70;99.90;;;;;;4981396;28;20286;-80
2023/03/04 02:47:02;;;;;;;15.85;2.03;;;7.70;99.90;;;;;;4982325;28;20117;-80
2023/03/04 02:49:30;;;;;;;15.45;2.45;;;7.60;99.90;;;;;;4983381;28;20053;-80
2023/03/04 02:52:05;;;;;;;8.25;1.63;;;7.70;99.90;;;;;;4964426;28;20078;-80
2023/03/04 02:54:31;;;;;;;14.95;2.00;;;7.60;99.90;;;;;;4961111;28;20030;-79
2023/03/04 02:57:02;;;;;;;12.25;2.08;;;7.60;99.90;;;;;;4971357;28;20026;-79
2023/03/04 02:59:29;;;;;;;13.95;1.75;;;7.60;99.90;;;;;;4985938;28;20110;-79
2023/03/04 03:01:54;;;;;;;15.65;2.10;;;7.70;99.90;;;;;;4962971;28;20030;-80
2023/03/04 03:04:21;;;;;;;20.30;1.92;;;7.70;99.90;;;;;;4961762;28;20097;-80
2023/03/04 03:06:50;;;;;;;15.57;1.77;;;7.80;99.90;;;;;;4982064;28;20077;-80
2023/03/04 03:09:16;;;;;;;15.52;2.15;;;7.80;99.90;;;;;;4961964;28;20663;-79
2023/03/04 03:11:44;;;;;;;13.88;2.00;;;7.90;99.90;;;;;;4983845;28;20022;-79
2023/03/04 03:14:09;;;;;;;18.17;2.05;;;8.00;99.90;;;;;;4961357;28;20038;-80
2023/03/04 03:16:35;;;;;;;15.93;2.13;;;7.90;99.90;;;;;;4966812;28;20466;-79
2023/03/04 03:19:01;;;;;;;16.02;2.25;;;7.90;99.90;;;;;;4985985;28;20022;-79
2023/03/04 03:21:27;;;;;;;9.20;1.60;;;7.90;99.90;;;;;;4968342;28;20077;-79
2023/03/04 03:23:52;;;;;;;15.40;2.40;;;7.80;99.90;;;;;;4985906;28;20026;-79
2023/03/04 03:26:19;;;;;;;16.83;2.40;;;7.80;99.90;;;;;;4967158;28;20027;-80
2023/03/04 03:28:44;;;;;;;18.08;2.13;;;7.80;99.90;;;;;;4968049;28;20121;-79
2023/03/04 03:31:12;;;;;;;17.67;2.15;;;7.80;99.90;;;;;;4984551;28;20097;-79
2023/03/04 03:33:40;;;;;;;18.63;2.00;;;7.80;99.90;;;;;;4984176;28;20023;-79
2023/03/04 03:36:07;;;;;;;10.15;1.98;;;7.80;99.90;;;;;;4984704;28;20039;-79
2023/03/04 03:38:33;;;;;;;13.18;1.92;;;7.70;99.90;;;;;;4985079;28;20033;-79
2023/03/04 03:41:01;;;;;;;15.30;2.35;;;7.70;99.90;;;;;;4985753;28;20109;-79
2023/03/04 03:43:27;;;;;;;15.18;1.90;;;7.80;99.90;;;;;;4983340;28;20015;-79
2023/03/04 03:45:52;;;;;;;8.25;1.67;;;7.70;99.90;;;;;;4985464;28;20112;-79
2023/03/04 03:48:18;;;;;;;16.13;2.20;;;7.60;99.90;;;;;;4982703;28;20027;-79
2023/03/04 03:50:44;;;;;;;12.88;2.13;;;7.60;99.90;;;;;;4987059;28;20029;-80
2023/03/04 03:53:10;;;;;;;15.05;2.35;;;7.60;99.90;;;;;;4985382;28;20521;-79
2023/03/04 03:55:35;;;;;;;7.30;1.90;;;7.60;99.90;;;;;;4985298;28;20018;-79
2023/03/04 03:58:01;;;;;;;11.43;1.85;;;7.60;99.90;;;;;;4986648;28;20029;-79
2023/03/04 04:00:27;;;;;;;14.30;2.30;;;7.70;99.90;;;;;;4983294;28;20082;-80
2023/03/04 04:02:54;;;;;;;13.68;1.73;;;7.70;99.90;;;;;;4985215;28;20022;-79
2023/03/04 04:05:20;;;;;;;9.40;1.58;;;7.60;99.90;;;;;;4965817;28;20049;-79
2023/03/04 04:07:45;;;;;;;18.02;2.08;;;7.70;99.90;;;;;;4965717;28;20023;-79
2023/03/04 04:10:11;;;;;;;8.48;1.55;;;7.60;99.90;;;;;;4984422;28;20027;-80
2023/03/04 04:12:37;;;;;;;9.82;1.88;;;7.70;99.90;;;;;;4984734;28;20069;-80
2023/03/04 04:15:05;;;;;;;16.25;1.95;;;7.80;99.90;;;;;;4986551;28;20042;-79
2023/03/04 04:17:33;;;;;;;9.52;1.83;;;7.70;99.90;;;;;;4984129;28;20504;-81
2023/03/04 04:19:59;;;;;;;12.07;1.75;;;7.80;99.90;;;;;;4967269;28;20041;-80
2023/03/04 04:22:24;;;;;;;12.63;1.50;;;7.70;99.90;;;;;;4986183;28;20394;-79
2023/03/04 04:24:50;;;;;;;11.68;1.85;;;7.80;99.90;;;;;;4983572;28;20026;-79
2023/03/04 04:27:16;;;;;;;24.70;1.88;;;7.80;99.90;;;;;;4965589;28;20097;-80
2023/03/04 04:29:41;;;;;;;9.38;1.75;;;7.80;99.90;;;;;;4982873;28;20010;-79
2023/03/04 04:32:07;;;;;;;17.92;1.98;;;7.80;99.90;;;;;;4994736;28;20031;-79
2023/03/04 04:34:33;;;;;;;14.15;1.73;;;7.80;99.90;;;;;;4973051;28;20022;-79
2023/03/04 04:37:01;;;;;;;13.80;1.63;;;7.70;99.90;;;;;;4986851;28;20031;-80
2023/03/04 04:39:27;;;;;;;10.48;1.35;;;7.70;99.90;;;;;;4966904;28;20018;-80
2023/03/04 04:41:52;;;;;;;15.00;1.85;;;7.80;99.90;;;;;;4984203;28;20411;-79
2023/03/04 04:44:18;;;;;;;8.18;1.50;;;7.80;99.90;;;;;;4964800;28;20298;-80
2023/03/04 04:46:43;;;;;;;13.77;1.73;;;7.70;99.90;;;;;;4968998;28;20038;-80
2023/03/04 04:49:09;;;;;;;15.55;1.85;;;7.80;99.90;;;;;;4984529;28;20038;-80
2023/03/04 04:51:37;;;;;;;11.35;1.92;;;7.80;99.90;;;;;;4984407;28;20019;-79
2023/03/04 04:54:03;;;;;;;13.63;1.88;;;7.70;99.90;;;;;;4983927;28;20042;-79
2023/03/04 04:56:29;;;;;;;8.88;1.70;;;7.70;99.90;;;;;;4984327;28;20499;-80
2023/03/04 04:59:00;;;;;;;15.77;1.80;;;7.70;99.90;;;;;;4982398;28;20126;-79
2023/03/04 05:01:26;;;;;;;8.88;1.45;;;7.70;99.90;;;;;;4985084;28;20321;-79
2023/03/04 05:03:54;;;;;;;11.40;1.38;;;7.60;99.90;;;;;;4984794;28;20030;-80
2023/03/04 05:06:20;;;;;;;17.55;1.98;;;7.60;99.90;;;;;;4966859;28;20030;-79
2023/03/04 05:08:46;;;;;;;13.45;1.63;;;7.60;99.90;;;;;;4984304;28;20054;-79
2023/03/04 05:11:12;;;;;;;12.98;1.83;;;7.60;99.90;;;;;;4983861;28;20022;-79
2023/03/04 05:13:37;;;;;;;17.23;1.67;;;7.70;99.90;;;;;;4967996;28;20022;-79
2023/03/04 05:16:03;;;;;;;19.17;2.35;;;7.60;99.90;;;;;;4986112;28;20033;-80
2023/03/04 05:18:29;;;;;;;13.18;1.83;;;7.60;99.90;;;;;;4982623;28;20097;-79
2023/03/04 05:20:57;;;;;;;13.57;1.65;;;7.60;99.90;;;;;;4967207;28;20110;-80
2023/03/04 05:23:25;;;;;;;8.30;1.42;;;7.60;99.90;;;;;;4965879;28;20036;-80
2023/03/04 05:25:51;;;;;;;10.60;1.65;;;7.60;99.90;;;;;;4984276;28;20025;-79
2023/03/04 05:28:17;;;;;;;15.25;1.30;;;7.70;99.90;;;;;;4985119;28;20583;-79
2023/03/04 05:30:45;;;;;;;7.60;1.55;;;7.70;99.90;;;;;;4983859;28;20026;-79
2023/03/04 05:33:12;;;;;;;8.07;1.30;;;7.60;99.90;;;;;;4984574;28;20025;-79
2023/03/04 05:35:39;;;;;;;12.77;1.92;;;7.50;99.90;;;;;;4982641;28;20108;-79
2023/03/04 05:38:07;;;;;;;8.27;1.48;;;7.50;99.90;;;;;;4963156;28;20034;-79
2023/03/04 05:40:33;;;;;;;14.48;1.80;;;7.50;99.90;;;;;;4981421;28;20038;-79
2023/03/04 05:43:01;;;;;;;13.35;1.85;;;7.50;99.90;;;;;;4982450;28;20053;-80
2023/03/04 05:45:27;;;;;;;8.95;1.48;;;7.50;99.90;;;;;;4964356;28;20398;-80
2023/03/04 05:47:53;;;;;;;12.40;1.73;;;7.50;99.90;;;;;;4982686;28;20109;-79
2023/03/04 05:50:20;;;;;;;9.70;1.70;;;7.50;99.90;;;;;;4981109;28;20026;-80
2023/03/04 05:52:47;;;;;;;9.52;1.90;;;7.60;99.90;;;;;;4967394;28;20311;-80
2023/03/04 05:55:14;;;;;;;15.57;2.03;;;7.60;99.90;;;;;;4981795;28;20537;-79
2023/03/04 05:57:40;;;;;;;18.15;2.00;;;7.70;99.90;;;;;;4966088;28;20112;-79
2023/03/04 06:00:10;;;;;;;12.40;1.77;;;7.60;99.90;;;;;;4965897;28;20106;-79
2023/03/04 06:02:36;;;;;;;11.35;2.03;;;7.60;99.90;;;;;;4984690;28;20022;-79
2023/03/04 06:05:03;;;;;;;7.95;1.55;;;7.60;99.90;;;;;;4982594;28;20157;-80
2023/03/04 06:07:31;;;;;;;11.45;1.55;;;7.50;99.90;;;;;;4981590;28;20056;-77
2023/03/04 06:09:57;;;;;;;4.30;1.42;;;7.40;99.90;;;;;;4981375;28;20046;-79
2023/03/04 06:12:23;;;;;;;14.75;2.20;;;7.40;99.90;;;;;;4982194;28;20022;-78
2023/03/04 06:14:51;;;;;;;16.30;2.03;;;7.40;99.90;;;;;;4963911;28;20026;-78
2023/03/04 06:17:17;;;;;;;7.00;1.75;;;7.40;99.90;;;;;;4984071;28;20053;-77
2023/03/04 06:19:42;;;;;;;9.35;1.60;;;7.50;99.90;;;;;;4967455;28;20027;-77
2023/03/04 06:22:09;;;;;;;11.35;1.88;;;7.40;99.90;;;;;;4975136;28;20361;-77
2023/03/04 06:24:34;;;;;;;6.63;1.52;;;7.40;99.90;;;;;;4982974;28;20022;-78
2023/03/04 06:27:01;;;;;;;10.35;1.90;;;7.40;99.90;;;;;;4983795;28;20056;-77
2023/03/04 06:29:27;;;;;;;11.40;1.90;;;7.50;99.90;;;;;;4982712;28;20041;-77
2023/03/04 06:31:52;;;;;;;15.18;2.10;;;7.50;99.90;;;;;;4965505;28;20605;-77
2023/03/04 06:34:18;;;;;;;13.93;1.67;;;7.30;99.90;;;;;;4982952;28;20037;-78
2023/03/04 06:36:44;;;;;;;10.55;1.58;;;7.30;99.90;;;;;;4963538;28;20080;-77
2023/03/04 06:39:11;;;;;;;11.13;1.27;;;7.40;99.90;;;;;;4983326;28;20089;-77
2023/03/04 06:41:37;;;;;;;23.65;1.45;;;7.40;99.90;;;;;;4964671;28;20434;-77
2023/03/04 06:44:04;;;;;;;7.68;1.58;;;7.40;99.90;;;;;;4983204;28;20034;-78
2023/03/04 06:46:31;;;;;;;6.82;1.35;;;7.40;99.90;;;;;;4983427;28;20130;-78
2023/03/04 06:48:57;;;;;;;10.57;1.20;;;7.40;99.90;;;;;;4964947;28;20023;-77
2023/03/04 06:51:22;;;;;;;10.77;1.40;;;7.30;99.90;;;;;;4987133;28;20037;-78
2023/03/04 06:53:48;;;;;;;10.55;1.70;;;7.30;99.90;;;;;;4966065;28;20033;-78
2023/03/04 06:56:15;;;;;;;13.68;2.38;;;7.40;99.90;;;;;;4986218;28;20062;-78
2023/03/04 06:58:41;;;;;;;11.30;1.80;;;7.40;99.90;;;;;;4985936;28;20023;-78
2023/03/04 07:01:12;;;;;;;14.63;1.40;;;7.50;99.90;;;;;;4982374;28;20073;-78
2023/03/04 07:03:38;;;;;;;15.38;1.45;;;7.50;99.90;;;;;;4968221;28;20078;-79
2023/03/04 07:06:05;;;;;;;9.80;1.45;;;7.50;99.90;;;;;;4986860;28;20133;-78
2023/03/04 07:08:31;;;;;;;5.45;1.27;;;7.60;99.90;;;;;;4967527;28;20085;-81
2023/03/04 07:10:57;;;;;;;12.85;1.60;;;7.60;99.90;;;;;;4968134;28;20022;-79
2023/03/04 07:13:25;;;;;;;9.05;1.38;;;7.50;99.90;;;;;;4984207;28;20104;-78
2023/03/04 07:15:52;;;;;;;11.82;1.58;;;7.50;99.90;;;;;;4966112;28;20976;-77
2023/03/04 07:18:18;;;;;;;9.15;1.33;;;7.50;99.90;;;;;;4968182;28;20126;-78
2023/03/04 07:20:44;;;;;;;9.55;1.38;;;7.60;99.90;;;;;;4983726;28;20097;-78
2023/03/04 07:23:12;;;;;;;7.82;1.25;;;7.60;99.90;;;;;;4969140;28;20034;-78
2023/03/04 07:25:39;;;;;;;11.77;1.75;;;7.70;99.90;;;;;;4984105;28;20050;-78
2023/03/04 07:28:07;;;;;;;10.73;1.60;;;7.80;99.90;;;;;;4983892;28;20022;-81
2023/03/04 07:30:35;;;;;;;10.38;1.52;;;7.90;99.90;;;;;;4982433;28;20066;-80
2023/03/04 07:33:04;;;;;;;8.30;1.38;;;7.90;99.90;;;;;;4980565;28;20057;-79
2023/03/04 07:35:31;;;;;;;12.50;1.55;;;7.90;99.90;;;;;;4966029;28;20363;-81
2023/03/04 07:37:59;;;;;;;13.82;1.88;;;8.00;99.90;;;;;;4969292;28;20600;-81
2023/03/04 07:40:26;;;;;;;7.93;1.40;;;7.90;99.90;;;;;;4983695;28;20031;-78
2023/03/04 07:42:54;;;;;;;12.80;1.52;;;8.00;99.90;;;;;;4983334;28;20649;-78
2023/03/04 07:45:23;;;;;;;13.98;1.23;;;8.00;99.90;;;;;;4983729;28;20042;-78
2023/03/04 07:47:52;;;;;;;10.13;1.35;;;8.10;99.90;;;;;;4969079;28;20112;-78
2023/03/04 07:50:21;;;;;;;14.25;1.83;;;8.20;99.90;;;;;;4982723;28;20438;-78
2023/03/04 07:52:52;;;;;;;11.27;1.33;;;8.30;99.90;;;;;;4984077;28;20131;-81
2023/03/04 07:55:19;;;;;;;8.48;1.08;;;8.20;99.90;;;;;;4962902;28;20015;-80
2023/03/04 07:57:50;;;;;;;14.05;1.38;;;8.20;99.90;;;;;;4985191;28;20022;-82
2023/03/04 08:00:18;;;;;;;10.73;2.38;;;8.20;99.90;;;;;;4980151;28;20034;-82
2023/03/04 08:02:46;;;;;;;9.63;3.58;;;8.30;99.90;;;;;;4984733;28;20022;-81
2023/03/04 08:05:13;;;;;;;14.05;3.40;;;8.40;99.90;;;;;;4980891;28;20023;-78
2023/03/04 08:07:40;;;;;;;15.80;2.45;;;8.50;99.90;;;;;;4968659;28;20026;-78
2023/03/04 08:10:09;;;;;;;5.85;1.67;;;8.60;99.90;;;;;;4972595;28;20488;-80
2023/03/04 08:12:35;;;;;;;14.85;1.85;;;8.60;99.90;;;;;;4992909;28;20527;-79
2023/03/04 08:15:01;;;;;;;9.25;2.00;;;8.60;99.90;;;;;;4987496;28;20026;-81
2023/03/04 08:17:28;;;;;;;10.82;2.20;;;8.50;99.90;;;;;;4967324;28;20106;-81
2023/03/04 08:19:55;;;;;;;15.75;2.25;;;8.50;99.90;;;;;;4967458;28;20029;-81
2023/03/04 08:22:21;;;;;;;9.10;1.30;;;8.40;99.90;;;;;;4982321;28;20022;-82
2023/03/04 08:24:47;;;;;;;15.70;1.85;;;8.50;99.90;;;;;;4984008;28;20077;-81
2023/03/04 08:27:13;;;;;;;17.85;1.35;;;8.40;99.90;;;;;;4965092;28;20101;-80
2023/03/04 08:29:40;;;;;;;14.80;1.70;;;8.50;99.90;;;;;;4981718;28;20104;-81
2023/03/04 08:32:06;;;;;;;11.10;1.55;;;8.50;99.90;;;;;;4984426;28;20049;-79
2023/03/04 08:34:32;;;;;;;13.70;1.60;;;8.70;99.90;;;;;;4984622;28;20422;-81
2023/03/04 08:36:57;;;;;;;10.88;1.40;;;8.90;99.90;;;;;;4969259;28;20066;-82
2023/03/04 08:39:23;;;;;;;9.63;1.63;;;9.00;99.90;;;;;;4967458;28;20056;-80
2023/03/04 08:41:51;;;;;;;6.97;1.48;;;9.00;99.90;;;;;;4978879;28;20041;-81
2023/03/04 08:44:18;;;;;;;6.20;1.35;;;8.90;99.90;;;;;;4984949;28;20496;-81
2023/03/04 08:46:44;;;;;;;3.78;1.02;;;8.90;99.90;;;;;;4981184;28;20030;-79
2023/03/04 08:49:11;;;;;;;7.22;1.38;;;8.90;99.90;;;;;;4977254;28;20108;-79
2023/03/04 08:51:39;;;;;;;5.75;1.33;;;9.10;99.90;;;;;;4982276;28;20022;-79
2023/03/04 08:54:05;;;;;;;6.13;1.17;;;9.40;99.90;;;;;;4965808;28;20026;-79
2023/03/04 08:56:31;;;;;;;7.82;1.08;;;9.50;99.90;;;;;;4979182;28;20029;-78
2023/03/04 08:58:57;;;;;;;6.97;1.00;;;9.50;99.90;;;;;;4981516;28;20115;-79
2023/03/04 09:01:23;;;;;;;7.05;1.30;;;9.50;99.90;;;;;;4977886;28;20511;-79
2023/03/04 09:03:49;;;;;;;11.38;1.25;;;9.50;99.90;;;;;;4981279;28;20033;-79
2023/03/04 09:06:15;;;;;;;5.50;1.02;;;9.40;99.90;;;;;;4983078;28;20552;-79
2023/03/04 09:08:42;;;;;;;4.93;0.90;;;9.60;99.90;;;;;;4964073;28;20022;-79
2023/03/04 09:11:08;;;;;;;4.03;1.02;;;9.60;99.90;;;;;;4969982;28;20023;-79
2023/03/04 09:13:34;;;;;;;4.65;1.00;;;9.60;99.90;;;;;;4981635;28;20110;-78
2023/03/04 09:16:00;;;;;;;7.07;1.30;;;9.60;99.90;;;;;;4971458;28;20061;-80
2023/03/04 09:18:27;;;;;;;19.33;1.52;;;9.50;99.90;;;;;;4985001;28;20050;-78
2023/03/04 09:20:53;;;;;;;5.18;1.38;;;9.60;99.90;;;;;;4964636;28;20068;-79
2023/03/04 09:23:18;;;;;;;8.90;1.15;;;9.70;99.90;;;;;;4987752;28;20104;-79
2023/03/04 09:25:46;;;;;;;5.75;1.42;;;9.80;99.90;;;;;;4973015;28;20567;-78
2023/03/04 09:28:13;;;;;;;5.85;1.02;;;9.70;99.90;;;;;;4963167;28;20081;-79
2023/03/04 09:30:41;;;;;;;8.05;1.30;;;9.50;99.90;;;;;;4964128;28;20058;-81
2023/03/04 09:33:08;;;;;;;8.50;1.27;;;9.40;99.90;;;;;;4981557;28;20022;-79
2023/03/04 09:35:33;;;;;;;4.25;0.88;;;9.30;99.90;;;;;;4980689;28;20026;-81
2023/03/04 09:38:01;;;;;;;8.30;1.58;;;9.30;99.90;;;;;;4981441;28;20026;-81
2023/03/04 09:40:37;;;;;;;13.02;1.67;;;9.20;99.90;;;;;;4982067;28;20030;-82
2023/03/04 09:43:04;;;;;;;6.97;1.50;;;9.40;99.90;;;;;;4972965;28;20044;-81
2023/03/04 09:45:54;;;;;;;3.95;1.50;;;9.80;99.90;;;;;;4981065;28;20034;-82
2023/03/04 09:48:24;;;;;;;7.50;1.50;;;9.70;99.90;;;;;;4963781;28;20041;-82
2023/03/04 09:51:15;;;;;;;10.95;1.65;;;9.40;99.90;;;;;;4963069;28;20132;-82
2023/03/04 09:54:17;;;;;;;6.70;2.08;;;9.40;99.90;;;;;;4966581;28;20118;-81
2023/03/04 09:56:45;;;;;;;6.95;2.70;;;9.40;99.90;;;;;;4971695;28;20070;-80
2023/03/04 09:59:34;;;;;;;5.90;1.85;;;9.30;99.90;;;;;;4967597;28;20038;-81
2023/03/04 10:02:12;;;;;;;3.78;1.38;;;9.10;99.90;;;;;;4973056;28;20018;-81
2023/03/04 10:04:49;;;;;;;8.73;1.60;;;9.10;99.90;;;;;;4967065;28;20038;-82
2023/03/04 10:07:32;;;;;;;10.02;2.45;;;9.40;99.90;;;;;;4968139;28;20445;-83
2023/03/04 10:10:13;;;;;;;8.75;2.55;;;9.10;99.90;;;;;;4960291;28;20045;-80
2023/03/04 10:12:45;;;;;;;8.32;2.35;;;9.20;99.90;;;;;;4963458;28;20089;-85
2023/03/04 10:15:35;;;;;;;8.50;1.80;;;9.40;99.90;;;;;;4981269;28;20075;-82
2023/03/04 10:18:24;;;;;;;9.88;2.53;;;9.80;99.90;;;;;;4964019;28;20166;-80
2023/03/04 10:21:15;;;;;;;10.93;2.58;;;9.80;99.90;;;;;;4981224;28;20014;-81
2023/03/04 10:23:41;;;;;;;11.82;3.22;;;9.90;99.90;;;;;;4979220;28;20363;-81
2023/03/04 10:26:14;;;;;;;10.23;2.25;;;10.20;99.90;;;;;;4965668;28;20522;-82
2023/03/04 10:28:40;;;;;;;8.23;2.42;;;10.60;99.90;;;;;;4962679;28;20061;-82
2023/03/04 10:31:25;;;;;;;9.32;2.30;;;10.60;99.90;;;;;;4981302;28;20652;-82
2023/03/04 10:33:50;;;;;;;8.85;1.73;;;10.40;99.90;;;;;;4985221;28;20022;-85
2023/03/04 10:36:28;;;;;;;4.93;2.80;;;10.40;99.90;;;;;;4990444;28;20033;-83
2023/03/04 10:39:43;;;;;;;8.88;2.17;;;10.40;99.90;;;;;;4991580;28;20049;-82
2023/03/04 10:42:15;;;;;;;6.68;1.73;;;10.10;99.90;;;;;;4969491;28;20014;-83
2023/03/04 10:44:58;;;;;;;7.10;1.55;;;9.70;99.90;;;;;;4983351;28;20042;-83
2023/03/04 10:47:31;;;;;;;6.82;1.40;;;9.50;99.90;;;;;;4967070;28;20051;-83
2023/03/04 10:49:59;;;;;;;7.15;2.58;;;9.50;99.90;;;;;;4964936;28;20474;-84
2023/03/04 10:52:49;;;;;;;3.25;1.40;;;9.50;99.90;;;;;;4961585;28;20058;-84
2023/03/04 10:55:50;;;;;;;1.95;0.95;;;9.50;99.90;;;;;;4977535;28;20030;-83
2023/03/04 10:58:42;;;;;;;3.38;1.40;;;9.50;99.90;;;;;;4904694;29;20059;-82
2023/03/04 11:04:36;;;;;;;3.30;1.17;;;9.40;99.90;;;;;;4976212;28;20041;-82
2023/03/04 11:07:17;;;;;;;6.72;1.58;;;9.40;99.90;;;;;;4982757;28;20168;-83
2023/03/04 11:10:19;;;;;;;;;;;;;;;;;;;;;
2023/03/04 11:12:55;;;;;;;7.93;1.60;;;9.60;99.90;;;;;;4989751;28;20102;-83
2023/03/04 11:15:26;;;;;;;4.25;1.40;;;9.50;99.90;;;;;;4983322;28;20053;-82
2023/03/04 11:18:09;;;;;;;3.85;1.30;;;9.50;99.90;;;;;;4968242;28;20030;-82
2023/03/04 11:20:54;;;;;;;5.00;1.00;;;9.50;99.90;;;;;;4978976;28;20015;-85
2023/03/04 11:23:34;;;;;;;6.43;1.40;;;9.60;99.90;;;;;;4964666;28;20501;-83
2023/03/04 11:26:27;;;;;;;9.23;1.90;;;9.70;99.90;;;;;;4967326;28;20461;-81
2023/03/04 11:28:55;;;;;;;14.50;1.58;;;9.60;99.90;;;;;;4981387;28;20821;-82
2023/03/04 11:31:35;;;;;;;5.72;1.40;;;9.50;99.90;;;;;;4980570;28;20477;-78
2023/03/04 11:34:10;;;;;;;2.90;1.30;;;9.50;99.90;;;;;;4979036;28;20112;-83
2023/03/04 11:36:55;;;;;;;7.32;1.42;;;9.40;99.90;;;;;;4967057;28;20026;-82
2023/03/04 11:39:40;;;;;;;9.77;2.00;;;9.50;99.90;;;;;;4982083;28;20257;-83
2023/03/04 11:42:39;;;;;;;4.00;1.20;;;9.40;99.90;;;;;;4967975;28;20022;-83
2023/03/04 11:45:14;;;;;;;5.70;1.48;;;9.20;99.90;;;;;;4983339;28;20071;-82
2023/03/04 11:47:43;;;;;;;2.63;1.48;;;9.20;99.90;;;;;;4985885;28;20031;-83
2023/03/04 11:50:09;;;;;;;3.47;1.58;;;9.20;99.90;;;;;;4965702;28;20581;-86
2023/03/04 11:52:50;;;;;;;6.32;1.55;;;9.10;99.90;;;;;;4985171;28;20419;-79
2023/03/04 11:55:28;;;;;;;4.00;1.67;;;9.10;99.90;;;;;;4984366;28;20126;-79
2023/03/04 11:58:00;;;;;;;3.88;1.80;;;8.90;99.90;;;;;;4984936;28;20382;-81
2023/03/04 12:00:44;;;;;;;4.22;2.40;;;8.80;99.90;;;;;;4966740;28;20495;-81
2023/03/04 12:03:40;;;;;;;5.22;1.77;;;9.10;99.90;;;;;;4964423;28;20034;-80
2023/03/04 12:06:17;;;;;;;6.05;2.00;;;9.40;99.90;;;;;;4983747;28;20033;-81
2023/03/04 12:08:57;;;;;;;3.83;2.38;;;9.70;99.90;;;;;;4968754;28;20026;-80
2023/03/04 12:11:42;;;;;;;7.00;2.25;;;10.20;99.90;;;;;;4981262;28;20357;-81
2023/03/04 12:14:29;;;;;;;5.13;2.10;;;11.00;99.90;;;;;;4982797;28;20085;-81
2023/03/04 12:17:04;;;;;;;4.57;1.42;;;11.30;99.90;;;;;;4969709;28;20026;-80
2023/03/04 12:19:48;;;;;;;4.20;1.77;;;11.20;99.90;;;;;;4980661;28;20054;-79
2023/03/04 12:22:22;;;;;;;3.55;1.88;;;11.00;99.90;;;;;;4986045;28;20415;-86
2023/03/04 12:25:26;;;;;;;3.70;2.35;;;11.00;99.90;;;;;;4963709;28;20487;-80
2023/03/04 12:28:10;;;;;;;2.40;1.60;;;10.60;99.90;;;;;;4983889;28;20027;-79
2023/03/04 12:30:50;;;;;;;3.00;1.60;;;10.30;99.90;;;;;;4966006;28;20038;-82
2023/03/04 12:33:51;;;;;;;5.13;1.20;;;10.10;99.90;;;;;;4983920;28;20027;-78
2023/03/04 12:36:20;;;;;;;4.82;1.50;;;10.00;99.90;;;;;;4981280;28;20085;-78
2023/03/04 12:39:17;;;;;;;3.42;1.58;;;9.90;99.90;;;;;;4981450;28;20026;-78
2023/03/04 12:41:58;;;;;;;4.88;1.60;;;9.80;99.90;;;;;;4965780;28;20030;-80
2023/03/04 12:44:24;;;;;;;3.28;1.50;;;9.80;99.90;;;;;;4984616;28;20109;-81
2023/03/04 12:47:27;;;;;;;2.58;1.52;;;9.80;99.90;;;;;;4967073;28;20131;-80
2023/03/04 12:50:26;;;;;;;1.55;1.35;;;9.90;99.90;;;;;;4984149;28;20071;-82
2023/03/04 12:53:00;;;;;;;4.10;1.92;;;9.90;99.90;;;;;;4953176;28;20049;-82
2023/03/04 12:55:36;;;;;;;5.25;1.35;;;9.80;99.90;;;;;;4983944;28;20026;-80
2023/03/04 12:58:03;;;;;;;5.03;1.50;;;9.80;99.90;;;;;;4984917;28;20571;-79
2023/03/04 13:00:50;;;;;;;3.60;1.08;;;9.80;99.90;;;;;;4981416;28;20027;-80
2023/03/04 13:03:27;;;;;;;2.17;1.40;;;9.70;99.90;;;;;;4983988;28;20022;-78
2023/03/04 13:06:23;;;;;;;3.63;1.73;;;9.60;99.90;;;;;;4969375;28;20030;-80
2023/03/04 13:09:20;;;;;;;3.88;1.42;;;9.60;99.90;;;;;;4980739;28;20026;-81
2023/03/04 13:12:00;;;;;;;5.13;1.10;;;9.60;99.90;;;;;;4964860;28;20351;-82
2023/03/04 13:14:28;;;;;;;2.83;1.23;;;9.60;99.90;;;;;;4982588;28;20089;-82